Time;durP1;ratioP1;P1;durP2;ratioP2;P2;SDS_P1;SDS_P2;PMS_P1;PMS_P2;Temp;Humidity;BMP_temperature;BMP_pressure;BME280_temperature;BME280_humidity;BME280_pressure;Samples;Min_cycle;Max_cycle;Signal;HPM_P1;HPM_P2
2022/06/01 00:00:51;;;;;;;3.40;2.30;;;;;;;14.71;56.28;96434.95;107788;1268;40827;-72
2022/06/01 00:03:22;;;;;;;3.60;2.10;;;;;;;14.70;56.22;96431.16;107790;1268;33946;-73
2022/06/01 00:05:53;;;;;;;4.40;2.30;;;;;;;14.64;56.22;96429.98;107792;1270;29876;-72
2022/06/01 00:08:25;;;;;;;4.60;2.40;;;;;;;14.58;56.32;96426.05;107720;1270;45375;-72
2022/06/01 00:10:57;;;;;;;3.30;2.50;;;;;;;14.53;56.27;96422.70;107768;1271;33016;-72
2022/06/01 00:13:28;;;;;;;5.20;2.20;;;;;;;14.50;56.47;96424.96;107765;1268;41271;-72
2022/06/01 00:15:59;;;;;;;3.00;2.30;;;;;;;14.47;56.49;96427.91;107788;1268;47237;-72
2022/06/01 00:18:30;;;;;;;3.90;2.30;;;;;;;14.44;56.59;96424.73;107797;1268;40637;-72
2022/06/01 00:21:01;;;;;;;2.90;2.30;;;;;;;14.43;56.65;96421.87;107731;1268;45251;-72
2022/06/01 00:23:32;;;;;;;4.40;2.60;;;;;;;14.43;56.80;96419.15;107787;1268;35201;-71
2022/06/01 00:26:03;;;;;;;5.30;2.50;;;;;;;14.44;56.80;96420.42;107768;1268;42936;-72
2022/06/01 00:28:37;;;;;;;5.00;2.40;;;;;;;14.44;56.87;96422.34;107828;1268;30207;-72
2022/06/01 00:31:10;;;;;;;4.10;2.50;;;;;;;14.47;56.92;96430.05;107865;1268;30116;-72
2022/06/01 00:33:43;;;;;;;3.90;2.30;;;;;;;14.49;56.95;96434.15;107806;1268;39148;-72
2022/06/01 00:36:13;;;;;;;3.30;2.40;;;;;;;14.49;56.82;96433.14;107798;1270;37483;-72
2022/06/01 00:38:44;;;;;;;3.10;1.90;;;;;;;14.44;56.95;96428.83;107754;1270;32339;-72
2022/06/01 00:41:18;;;;;;;4.80;2.60;;;;;;;14.37;57.02;96430.98;107758;1271;41478;-72
2022/06/01 00:43:49;;;;;;;6.40;3.10;;;;;;;14.27;57.45;96429.73;107742;1270;39899;-72
2022/06/01 00:46:20;;;;;;;3.60;2.60;;;;;;;14.18;57.69;96428.73;107750;1271;34118;-72
2022/06/01 00:48:57;;;;;;;4.50;2.90;;;;;;;14.09;57.91;96428.06;107590;1268;223122;-72
2022/06/01 00:51:29;;;;;;;5.50;3.00;;;;;;;14.00;58.06;96425.93;107804;1268;29034;-72
2022/06/01 00:54:00;;;;;;;4.00;3.00;;;;;;;13.92;58.60;96423.20;107780;1268;35729;-72
2022/06/01 00:56:39;;;;;;;4.00;3.00;;;;;;;13.85;58.98;96424.12;107815;1268;29392;-72
2022/06/01 00:59:16;;;;;;;5.60;3.40;;;;;;;13.80;59.49;96424.26;107837;1268;37219;-72
2022/06/01 01:01:48;;;;;;;5.60;3.50;;;;;;;13.79;59.68;96418.29;107785;1268;47391;-72
2022/06/01 01:04:20;;;;;;;4.90;3.30;;;;;;;13.79;59.92;96408.48;107764;1268;48036;-72
2022/06/01 01:06:51;;;;;;;4.80;3.20;;;;;;;13.79;60.12;96402.52;107739;1268;43795;-71
2022/06/01 01:09:24;;;;;;;3.40;2.80;;;;;;;13.79;59.95;96398.61;107809;1271;29365;-72
2022/06/01 01:11:59;;;;;;;5.40;3.00;;;;;;;13.84;59.60;96395.27;107747;1270;41767;-72
2022/06/01 01:14:34;;;;;;;4.40;2.50;;;;;;;13.88;59.48;96395.85;107803;1268;37099;-72
2022/06/01 01:17:07;;;;;;;5.00;2.60;;;;;;;13.92;59.39;96398.52;107771;1268;48802;-72
2022/06/01 01:19:43;;;;;;;3.40;2.30;;;;;;;13.99;59.21;96403.86;107801;1271;39086;-72
2022/06/01 01:22:36;;;;;;;4.20;2.70;;;;;;;14.08;58.99;96405.32;107756;1270;32011;-72
2022/06/01 01:25:19;;;;;;;3.50;2.70;;;;;;;14.19;58.75;96405.72;107786;1271;41774;-72
2022/06/01 01:27:52;;;;;;;4.00;2.60;;;;;;;14.29;58.43;96401.61;107798;1268;29756;-72
2022/06/01 01:30:42;;;;;;;3.30;2.50;;;;;;;14.32;58.34;96400.16;107804;1271;41868;-72
2022/06/01 01:33:16;;;;;;;4.40;2.80;;;;;;;14.41;58.24;96393.66;107747;1268;40460;-72
2022/06/01 01:35:50;;;;;;;5.30;2.70;;;;;;;14.49;58.05;96388.45;107803;1269;41544;-71
2022/06/01 01:38:29;;;;;;;4.30;2.70;;;;;;;14.53;58.02;96384.02;107761;1268;39363;-72
2022/06/01 01:41:14;;;;;;;4.00;2.50;;;;;;;14.59;57.83;96376.55;107820;1271;33060;-72
2022/06/01 01:43:50;;;;;;;3.90;2.90;;;;;;;14.63;57.73;96376.10;107758;1268;39541;-72
2022/06/01 01:46:22;;;;;;;3.50;2.40;;;;;;;14.69;57.61;96377.88;107843;1268;31262;-72
2022/06/01 01:48:53;;;;;;;3.20;2.60;;;;;;;14.73;57.42;96379.36;107735;1271;43687;-72
2022/06/01 01:51:26;;;;;;;2.90;2.10;;;;;;;14.73;57.25;96375.44;107757;1271;47458;-72
2022/06/01 01:53:59;;;;;;;4.30;2.10;;;;;;;14.76;57.16;96374.71;107803;1269;30914;-72
2022/06/01 01:56:56;;;;;;;3.90;2.50;;;;;;;14.82;57.00;96374.08;107786;1269;41638;-72
2022/06/01 01:59:41;;;;;;;3.90;2.30;;;;;;;14.82;56.84;96373.92;107753;1268;40407;-72
2022/06/01 02:02:19;;;;;;;3.30;2.40;;;;;;;14.80;56.85;96371.69;107759;1268;49630;-73
2022/06/01 02:07:51;;;;;;;4.70;2.80;;;;;;;14.84;56.77;96387.73;107751;1270;33126;-72
2022/06/01 02:13:11;;;;;;;3.30;2.60;;;;;;;14.82;56.73;96390.10;107806;1271;41915;-72
2022/06/01 02:15:48;;;;;;;4.10;2.80;;;;;;;14.79;56.89;96387.04;107724;1270;38283;-73
2022/06/01 02:18:27;;;;;;;5.20;3.00;;;;;;;14.72;56.97;96389.74;107775;1271;35034;-72
2022/06/01 02:21:03;;;;;;;4.70;2.80;;;;;;;14.66;57.14;96393.85;107782;1271;35152;-72
2022/06/01 02:23:35;;;;;;;5.40;2.60;;;;;;;14.63;57.38;96394.98;107778;1268;42039;-72
2022/06/01 02:26:06;;;;;;;5.60;2.70;;;;;;;14.63;57.55;96398.35;107770;1268;37426;-73
2022/06/01 02:28:43;;;;;;;2.40;2.00;;;;;;;14.68;57.60;96395.77;107835;1268;42069;-72
2022/06/01 02:31:17;;;;;;;5.20;3.30;;;;;;;14.71;57.65;96394.14;107797;1269;39828;-72
2022/06/01 02:33:50;;;;;;;4.80;3.00;;;;;;;14.72;57.52;96392.81;107770;1271;53116;-72
2022/06/01 02:36:23;;;;;;;3.00;2.30;;;;;;;14.73;57.58;96385.64;107800;1268;30256;-72
2022/06/01 02:38:56;;;;;;;4.50;2.30;;;;;;;14.74;57.52;96390.70;107776;1268;45105;-72
2022/06/01 02:44:18;;;;;;;3.30;2.70;;;;;;;14.70;57.65;96380.92;107782;1271;27948;-71
2022/06/01 02:46:49;;;;;;;4.50;2.60;;;;;;;14.70;57.68;96385.00;107723;1271;46292;-71
2022/06/01 02:49:20;;;;;;;3.70;2.80;;;;;;;14.67;57.80;96388.11;107843;1268;31990;-72
2022/06/01 02:51:52;;;;;;;3.90;2.40;;;;;;;14.66;57.95;96381.86;107804;1268;39493;-72
2022/06/01 02:54:23;;;;;;;3.50;2.60;;;;;;;14.65;58.05;96384.59;107812;1268;38480;-72
2022/06/01 02:56:54;;;;;;;4.80;2.70;;;;;;;14.67;58.14;96389.55;107797;1268;38027;-72
2022/06/01 02:59:24;;;;;;;4.90;2.60;;;;;;;14.67;58.06;96390.15;107776;1268;40766;-72
2022/06/01 03:01:55;;;;;;;4.00;2.60;;;;;;;14.66;58.31;96390.11;107785;1268;33388;-72
2022/06/01 03:04:27;;;;;;;4.20;2.90;;;;;;;14.66;58.52;96393.98;107758;1268;46704;-71
2022/06/01 03:07:00;;;;;;;4.00;3.00;;;;;;;14.67;58.64;96394.33;107890;1269;33140;-72
2022/06/01 03:09:31;;;;;;;5.80;2.90;;;;;;;14.67;58.54;96395.20;107781;1273;38248;-72
2022/06/01 03:12:02;;;;;;;3.80;2.90;;;;;;;14.69;58.60;96390.94;107825;1268;30675;-72
2022/06/01 03:14:33;;;;;;;3.40;2.80;;;;;;;14.72;58.61;96389.56;107765;1268;36309;-71
2022/06/01 03:17:05;;;;;;;5.90;3.50;;;;;;;14.78;58.68;96390.43;107743;1268;40871;-72
2022/06/01 03:19:36;;;;;;;4.00;3.00;;;;;;;14.85;58.63;96397.48;107781;1268;38018;-72
2022/06/01 03:22:07;;;;;;;4.20;2.90;;;;;;;14.85;58.67;96407.92;107795;1268;47667;-72
2022/06/01 03:24:38;;;;;;;3.60;2.80;;;;;;;14.81;58.69;96426.05;107763;1269;37709;-72
2022/06/01 03:27:09;;;;;;;6.00;3.80;;;;;;;14.84;59.00;96423.92;107880;1268;41442;-72
2022/06/01 03:29:40;;;;;;;8.80;4.30;;;;;;;15.02;59.45;96431.84;107920;1268;34167;-71
2022/06/01 03:32:11;;;;;;;8.50;3.90;;;;;;;15.26;59.47;96427.89;107816;1268;35325;-72
2022/06/01 03:34:43;;;;;;;5.50;3.30;;;;;;;15.49;59.28;96436.35;107734;1268;33421;-72
2022/06/01 03:37:14;;;;;;;5.00;3.10;;;;;;;15.59;58.97;96439.69;107798;1268;34223;-71
2022/06/01 03:39:45;;;;;;;5.50;3.70;;;;;;;15.63;58.74;96452.42;107760;1268;44871;-72
2022/06/01 03:42:16;;;;;;;5.20;3.80;;;;;;;15.59;58.86;96452.14;107796;1268;33193;-72
2022/06/01 03:47:36;;;;;;;6.20;3.70;;;;;;;15.56;58.82;96453.61;107718;1271;35686;-72
2022/06/01 03:50:09;;;;;;;5.80;3.70;;;;;;;15.55;58.77;96460.34;107713;1268;45163;-72
2022/06/01 03:52:41;;;;;;;5.50;3.70;;;;;;;15.52;58.86;96461.82;107903;1268;36504;-71
2022/06/01 03:55:14;;;;;;;4.50;3.20;;;;;;;15.49;58.95;96462.22;107737;1268;43661;-72
2022/06/01 03:57:45;;;;;;;6.10;3.50;;;;;;;15.43;58.97;96460.20;107835;1268;36929;-72
2022/06/01 04:00:21;;;;;;;4.40;3.50;;;;;;;15.33;58.99;96465.36;107733;1268;35439;-72
2022/06/01 04:02:52;;;;;;;6.40;3.70;;;;;;;15.21;59.04;96469.30;107754;1268;37604;-72
2022/06/01 04:05:24;;;;;;;4.70;3.30;;;;;;;15.06;59.06;96478.30;107763;1268;30421;-72
2022/06/01 04:07:55;;;;;;;5.80;3.30;;;;;;;14.99;59.23;96486.52;107773;1271;43075;-72
2022/06/01 04:10:26;;;;;;;6.10;3.10;;;;;;;14.97;59.45;96490.78;107795;1268;35456;-72
2022/06/01 04:12:57;;;;;;;5.70;3.30;;;;;;;15.00;59.83;96494.96;107755;1268;45532;-72
2022/06/01 04:15:28;;;;;;;4.20;3.10;;;;;;;15.10;59.94;96504.64;107747;1271;36257;-71
2022/06/01 04:17:59;;;;;;;6.00;3.70;;;;;;;15.26;59.98;96511.91;107738;1268;43193;-72
2022/06/01 04:20:30;;;;;;;4.90;3.50;;;;;;;15.46;59.87;96501.69;107765;1268;39139;-71
2022/06/01 04:23:02;;;;;;;6.20;4.00;;;;;;;15.62;60.42;96499.60;107723;1268;41389;-72
2022/06/01 04:25:33;;;;;;;7.60;4.50;;;;;;;15.58;60.62;96501.84;107759;1268;33896;-71
2022/06/01 04:28:04;;;;;;;8.80;5.60;;;;;;;15.52;60.94;96498.29;107684;1268;43193;-71
2022/06/01 04:30:38;;;;;;;13.00;9.40;;;;;;;15.51;61.12;96503.75;107691;1268;35192;-71
2022/06/01 04:33:09;;;;;;;5.80;4.00;;;;;;;15.56;61.40;96500.01;107874;1268;38893;-71
2022/06/01 04:35:40;;;;;;;10.10;4.90;;;;;;;15.65;61.47;96509.23;107805;1268;36584;-71
2022/06/01 04:38:13;;;;;;;7.20;3.70;;;;;;;15.75;61.62;96513.11;107829;1268;34766;-71
2022/06/01 04:40:49;;;;;;;8.30;4.80;;;;;;;15.79;61.76;96510.98;107787;1268;33293;-72
2022/06/01 04:43:23;;;;;;;6.20;3.50;;;;;;;15.67;61.83;96504.67;107790;1268;32272;-72
2022/06/01 04:45:54;;;;;;;7.20;4.80;;;;;;;15.53;62.34;96516.45;107721;1268;54068;-72
2022/06/01 04:48:26;;;;;;;7.40;4.70;;;;;;;15.43;62.99;96523.93;107720;1268;39817;-72
2022/06/01 04:51:01;;;;;;;9.80;5.70;;;;;;;15.30;63.29;96535.15;107726;1268;38528;-72
2022/06/01 04:53:32;;;;;;;6.50;5.00;;;;;;;15.28;63.54;96548.34;107748;1268;42744;-71
2022/06/01 04:56:03;;;;;;;6.40;5.10;;;;;;;15.38;63.77;96546.73;107756;1268;36213;-72
2022/06/01 04:58:34;;;;;;;7.90;5.70;;;;;;;15.39;63.93;96542.39;107673;1271;44553;-71
2022/06/01 05:01:05;;;;;;;9.50;5.90;;;;;;;15.32;63.96;96548.44;107748;1268;36289;-71
2022/06/01 05:03:36;;;;;;;8.60;5.40;;;;;;;15.26;64.28;96549.47;107787;1268;39579;-71
2022/06/01 05:06:07;;;;;;;8.80;5.30;;;;;;;15.16;64.47;96544.36;107772;1268;39276;-72
2022/06/01 05:08:38;;;;;;;7.50;5.40;;;;;;;15.08;64.86;96545.60;107824;1268;34802;-72
2022/06/01 05:11:10;;;;;;;7.90;4.90;;;;;;;14.99;65.09;96545.90;107761;1270;35040;-72
2022/06/01 05:13:41;;;;;;;7.50;5.20;;;;;;;14.99;65.36;96540.34;107862;1268;38739;-71
2022/06/01 05:16:12;;;;;;;6.60;5.40;;;;;;;15.08;65.40;96534.38;107751;1268;44788;-73
2022/06/01 05:18:42;;;;;;;8.30;4.90;;;;;;;15.17;65.35;96532.84;107690;1270;34556;-72
2022/06/01 05:21:14;;;;;;;5.80;4.50;;;;;;;15.19;65.58;96525.73;107720;1268;41654;-72
2022/06/01 05:23:45;;;;;;;5.60;4.30;;;;;;;15.20;65.51;96520.48;107759;1270;33258;-71
2022/06/01 05:26:16;;;;;;;7.00;4.50;;;;;;;15.18;65.80;96519.69;107787;1268;33936;-72
2022/06/01 05:28:47;;;;;;;6.50;4.10;;;;;;;15.16;66.04;96516.75;107682;1270;41474;-71
2022/06/01 05:31:19;;;;;;;7.10;4.80;;;;;;;15.12;66.62;96520.70;107762;1268;42810;-71
2022/06/01 05:33:51;;;;;;;7.90;4.00;;;;;;;15.11;66.82;96524.52;107687;1268;45691;-71
2022/06/01 05:36:22;;;;;;;8.80;5.10;;;;;;;15.13;67.08;96526.23;107761;1268;39803;-72
2022/06/01 05:38:53;;;;;;;7.60;4.40;;;;;;;15.24;67.22;96526.21;107724;1268;55952;-72
2022/06/01 05:41:23;;;;;;;7.30;4.80;;;;;;;15.37;66.92;96526.63;107786;1268;28909;-72
2022/06/01 05:43:54;;;;;;;9.00;4.90;;;;;;;15.47;67.10;96522.49;107722;1268;46326;-72
2022/06/01 05:46:26;;;;;;;7.40;4.50;;;;;;;15.61;67.06;96517.95;107768;1268;33223;-72
2022/06/01 05:48:57;;;;;;;7.20;4.90;;;;;;;15.80;66.66;96507.55;107716;1268;44451;-72
2022/06/01 05:51:28;;;;;;;7.70;5.10;;;;;;;15.77;66.23;96506.79;107791;1268;30357;-72
2022/06/01 05:53:59;;;;;;;7.50;5.20;;;;;;;15.75;66.37;96508.01;107801;1268;42174;-72
2022/06/01 05:56:30;;;;;;;12.60;5.50;;;;;;;15.80;66.39;96506.10;107740;1267;41280;-72
2022/06/01 05:59:01;;;;;;;9.30;5.50;;;;;;;15.92;66.57;96502.35;107791;1268;32231;-72
2022/06/01 06:01:32;;;;;;;7.90;5.00;;;;;;;16.15;66.58;96507.54;107763;1268;45939;-72
2022/06/01 06:04:03;;;;;;;7.70;5.00;;;;;;;16.61;66.73;96505.92;107795;1268;33405;-72
2022/06/01 06:06:34;;;;;;;6.60;4.90;;;;;;;17.48;66.50;96507.86;107684;1271;41587;-72
2022/06/01 06:09:08;;;;;;;7.00;4.90;;;;;;;19.30;65.60;96511.08;107806;1268;35044;-72
2022/06/01 06:11:40;;;;;;;5.50;4.50;;;;;;;20.92;62.20;96504.63;107882;1268;37232;-72
2022/06/01 06:14:12;;;;;;;7.20;4.70;;;;;;;22.51;59.46;96493.58;107813;1268;43503;-72
2022/06/01 06:16:44;;;;;;;4.90;4.20;;;;;;;24.32;56.90;96491.05;107742;1268;43322;-73
2022/06/01 06:19:17;;;;;;;6.70;4.30;;;;;;;26.52;52.79;96484.34;107723;1268;48688;-73
2022/06/01 06:21:48;;;;;;;4.60;3.30;;;;;;;28.00;47.88;96489.91;107765;1268;36737;-73
2022/06/01 06:24:22;;;;;;;6.30;3.90;;;;;;;29.47;45.95;96498.48;107762;1268;38688;-73
2022/06/01 06:26:52;;;;;;;6.30;4.10;;;;;;;30.93;43.60;96500.53;107798;1268;39704;-73
2022/06/01 06:29:23;;;;;;;4.00;3.60;;;;;;;30.70;36.39;96501.63;107743;1268;46747;-74
2022/06/01 06:31:56;;;;;;;6.50;3.90;;;;;;;29.55;37.03;96506.84;107754;1268;42249;-73
2022/06/01 06:34:28;;;;;;;5.60;3.50;;;;;;;28.02;38.76;96502.98;107711;1270;33639;-73
2022/06/01 06:36:59;;;;;;;5.70;3.90;;;;;;;26.39;39.38;96496.36;107707;1268;43359;-73
2022/06/01 06:39:30;;;;;;;5.60;4.20;;;;;;;24.60;40.97;96500.84;107774;1268;41530;-73
2022/06/01 06:42:00;;;;;;;4.10;3.40;;;;;;;23.52;42.72;96498.55;107741;1267;48410;-72
2022/06/01 06:44:33;;;;;;;7.10;3.80;;;;;;;22.94;43.98;96498.85;107815;1268;30467;-73
2022/06/01 06:47:06;;;;;;;6.50;3.90;;;;;;;23.32;44.83;96498.46;107744;1268;48184;-73
2022/06/01 06:49:37;;;;;;;5.30;4.10;;;;;;;23.75;44.43;96497.10;107764;1268;37540;-73
2022/06/01 06:52:09;;;;;;;5.20;4.40;;;;;;;23.83;43.82;96495.52;107884;1268;29288;-73
2022/06/01 06:54:40;;;;;;;6.70;4.50;;;;;;;22.98;44.37;96501.14;107834;1268;43483;-72
2022/06/01 06:57:11;;;;;;;6.00;3.80;;;;;;;21.65;45.62;96505.23;107835;1268;44902;-72
2022/06/01 06:59:42;;;;;;;6.90;4.60;;;;;;;20.50;48.40;96513.36;107771;1268;43736;-74
2022/06/01 07:02:13;;;;;;;6.60;5.20;;;;;;;19.74;50.30;96507.27;107761;1268;45682;-72
2022/06/01 07:04:44;;;;;;;5.40;4.30;;;;;;;19.17;51.31;96506.17;107727;1268;39566;-73
2022/06/01 07:07:15;;;;;;;7.30;5.00;;;;;;;19.11;52.35;96509.15;107787;1268;37661;-72
2022/06/01 07:09:46;;;;;;;6.90;4.80;;;;;;;19.00;53.04;96517.31;107753;1268;43174;-72
2022/06/01 07:12:16;;;;;;;8.00;4.60;;;;;;;18.58;54.44;96525.11;107787;1268;33896;-72
2022/06/01 07:14:47;;;;;;;7.70;4.80;;;;;;;18.15;55.31;96525.79;107793;1268;38451;-72
2022/06/01 07:17:18;;;;;;;6.30;5.30;;;;;;;17.97;56.49;96518.04;107769;1268;30386;-72
2022/06/01 07:19:50;;;;;;;10.60;5.60;;;;;;;18.17;56.73;96515.70;107795;1268;30918;-72
2022/06/01 07:22:20;;;;;;;6.10;5.10;;;;;;;18.55;56.76;96517.87;107834;1268;39684;-72
2022/06/01 07:24:51;;;;;;;4.90;4.30;;;;;;;20.20;56.79;96520.33;107753;1268;48112;-72
2022/06/01 07:27:22;;;;;;;7.00;4.30;;;;;;;22.06;53.69;96512.61;107742;1268;48050;-72
2022/06/01 07:29:54;;;;;;;6.30;4.40;;;;;;;22.08;52.40;96514.35;107805;1268;51839;-72
2022/06/01 07:46:29;;;;;;;5.50;3.80;;;;;;;24.90;47.57;96506.48;104305;1310;558604;-72
2022/06/01 07:49:02;;;;;;;4.70;3.70;;;;;;;26.58;44.81;96503.30;106881;1279;242016;-72
2022/06/01 07:51:33;;;;;;;5.10;3.80;;;;;;;28.82;43.65;96503.96;107153;1276;35507;-72
2022/06/01 07:54:05;;;;;;;4.70;3.30;;;;;;;31.09;40.47;96503.08;107181;1276;45569;-72
2022/06/01 07:56:36;;;;;;;4.70;3.00;;;;;;;33.25;38.23;96509.53;107168;1277;39047;-72
2022/06/01 07:59:08;;;;;;;4.20;3.00;;;;;;;33.71;32.52;96513.16;107243;1274;29763;-72
2022/06/01 08:01:40;;;;;;;4.70;3.00;;;;;;;32.75;32.62;96512.61;107114;1277;47556;-72
2022/06/01 08:04:12;;;;;;;3.40;2.60;;;;;;;33.60;33.97;96514.90;107118;1276;48648;-72
2022/06/01 08:06:43;;;;;;;3.90;3.00;;;;;;;33.97;31.18;96516.34;107193;1276;33207;-72
2022/06/01 08:09:14;;;;;;;4.10;3.10;;;;;;;32.42;31.08;96520.16;107202;1276;44771;-72
2022/06/01 08:14:34;;;;;;;4.20;3.10;;;;;;;30.08;33.18;96530.34;107169;1276;44820;-72
2022/06/01 08:17:05;;;;;;;4.10;3.70;;;;;;;27.84;34.62;96538.55;107116;1277;43501;-72
2022/06/01 08:19:36;;;;;;;3.80;3.30;;;;;;;25.76;36.75;96539.91;107264;1273;44547;-72
2022/06/01 08:22:07;;;;;;;5.20;3.30;;;;;;;24.28;39.14;96545.69;107346;1273;38324;-71
2022/06/01 08:24:38;;;;;;;8.80;3.60;;;;;;;23.22;41.26;96545.83;107369;1271;33299;-71
2022/06/01 08:27:13;;;;;;;6.20;4.50;;;;;;;22.41;43.08;96544.73;107325;1271;49930;-71
2022/06/01 08:29:44;;;;;;;6.30;3.80;;;;;;;22.07;43.63;96549.52;107365;1271;42088;-71
2022/06/01 08:32:15;;;;;;;4.90;3.80;;;;;;;21.95;45.00;96552.95;107335;1271;44205;-71
2022/06/01 08:34:46;;;;;;;7.10;3.50;;;;;;;22.55;45.16;96554.04;107294;1271;45188;-71
2022/06/01 08:37:23;;;;;;;5.60;3.60;;;;;;;22.44;45.30;96554.13;107416;1271;30336;-71
2022/06/01 08:39:53;;;;;;;7.80;4.00;;;;;;;22.25;45.86;96560.07;107450;1271;42110;-71
2022/06/01 08:42:27;;;;;;;5.90;4.00;;;;;;;21.88;46.66;96563.96;107414;1271;33064;-71
2022/06/01 08:45:04;;;;;;;5.60;4.00;;;;;;;21.85;47.31;96562.20;107338;1270;57553;-71
2022/06/01 08:47:38;;;;;;;3.80;3.30;;;;;;;21.67;47.44;96562.41;107390;1271;35144;-73
2022/06/01 08:50:17;;;;;;;3.50;3.10;;;;;;;21.56;48.85;96565.01;107373;1271;34077;-73
2022/06/01 08:52:49;;;;;;;5.70;3.40;;;;;;;21.85;48.84;96565.06;107363;1271;43569;-73
2022/06/01 08:55:20;;;;;;;3.50;2.70;;;;;;;21.91;49.12;96566.89;107379;1271;39912;-73
2022/06/01 08:57:59;;;;;;;3.70;2.80;;;;;;;22.20;49.30;96567.16;107506;1271;48415;-73
2022/06/01 09:00:34;;;;;;;3.30;2.60;;;;;;;22.51;48.96;96566.77;107473;1271;55708;-73
2022/06/01 09:03:14;;;;;;;3.30;2.80;;;;;;;22.47;48.65;96568.23;107394;1271;44664;-73
2022/06/01 09:05:49;;;;;;;3.10;2.80;;;;;;;22.18;49.27;96567.50;107462;1271;32956;-73
2022/06/01 09:08:30;;;;;;;5.00;3.30;;;;;;;21.70;49.66;96566.64;107422;1271;46183;-72
2022/06/01 09:11:06;;;;;;;4.20;3.50;;;;;;;20.94;51.10;96568.92;107431;1271;48322;-73
2022/06/01 09:13:47;;;;;;;4.90;3.50;;;;;;;20.20;52.92;96569.65;107440;1271;44858;-73
2022/06/01 09:16:23;;;;;;;5.20;3.30;;;;;;;20.07;53.48;96563.15;107348;1270;68907;-73
2022/06/01 09:18:55;;;;;;;4.20;3.50;;;;;;;20.36;53.40;96563.64;107464;1271;39502;-73
2022/06/01 09:24:20;;;;;;;4.70;3.40;;;;;;;20.95;53.77;96567.73;107456;1271;30912;-73
2022/06/01 09:27:01;;;;;;;6.10;4.00;;;;;;;21.16;53.51;96570.83;107407;1271;51321;-73
2022/06/01 09:29:35;;;;;;;6.30;3.70;;;;;;;21.35;53.47;96565.20;107326;1271;49141;-74
2022/06/01 09:32:08;;;;;;;6.40;3.90;;;;;;;21.58;52.93;96560.60;107421;1271;43538;-73
2022/06/01 09:34:47;;;;;;;5.50;3.90;;;;;;;21.55;52.92;96558.21;107381;1271;42981;-71
2022/06/01 09:37:25;;;;;;;5.20;3.80;;;;;;;21.23;53.19;96559.67;107423;1271;35952;-73
2022/06/01 09:39:58;;;;;;;4.70;3.90;;;;;;;21.09;53.73;96559.91;107499;1270;34100;-74
2022/06/01 09:42:37;;;;;;;5.00;4.00;;;;;;;21.46;53.72;96556.30;107418;1270;40345;-73
2022/06/01 09:45:23;;;;;;;6.80;4.10;;;;;;;21.45;53.26;96556.51;107391;1271;45985;-71
2022/06/01 09:47:55;;;;;;;6.20;4.00;;;;;;;21.79;53.56;96554.29;107463;1271;42476;-71
2022/06/01 09:50:30;;;;;;;5.00;4.30;;;;;;;21.76;52.36;96552.67;107452;1271;38948;-74
2022/06/01 09:53:13;;;;;;;5.90;3.80;;;;;;;21.70;52.69;96548.85;107438;1271;42154;-73
2022/06/01 09:55:55;;;;;;;6.20;4.10;;;;;;;21.95;53.34;96553.57;107394;1271;49117;-73
2022/06/01 10:07:05;;;;;;;5.50;3.60;;;;;;;21.56;51.66;96548.22;107398;1271;34715;-73
2022/06/01 10:09:37;;;;;;;5.80;3.70;;;;;;;21.52;51.61;96551.66;107416;1271;44828;-73
2022/06/01 10:12:29;;;;;;;4.80;3.50;;;;;;;21.70;51.18;96561.34;107390;1271;35927;-73
2022/06/01 10:15:03;;;;;;;6.30;4.70;;;;;;;21.70;51.62;96568.66;107380;1271;32474;-73
2022/06/01 10:17:36;;;;;;;6.20;4.20;;;;;;;21.53;51.93;96572.41;107423;1271;37928;-73
2022/06/01 10:20:19;;;;;;;5.40;4.20;;;;;;;21.42;52.31;96579.27;107455;1271;32165;-73
2022/06/01 10:22:59;;;;;;;6.80;4.20;;;;;;;21.44;52.61;96582.38;107378;1271;38898;-73
2022/06/01 10:25:37;;;;;;;5.00;3.90;;;;;;;21.78;52.73;96571.77;107467;1271;31957;-73
2022/06/01 10:28:15;;;;;;;5.30;3.90;;;;;;;22.25;52.46;96572.41;107404;1271;81485;-73
2022/06/01 10:30:51;;;;;;;5.60;4.20;;;;;;;22.31;51.81;96566.77;107539;1270;38609;-72
2022/06/01 10:33:28;;;;;;;6.30;4.60;;;;;;;21.96;52.08;96566.67;107657;1268;77197;-73
2022/06/01 10:36:03;;;;;;;6.60;4.10;;;;;;;21.99;51.85;96567.92;107566;1268;44246;-73
2022/06/01 10:38:41;;;;;;;6.60;4.50;;;;;;;21.75;51.35;96570.62;107580;1269;43089;-72
2022/06/01 10:41:21;;;;;;;6.30;4.10;;;;;;;21.11;51.44;96566.52;107536;1268;51350;-73
2022/06/01 10:43:59;;;;;;;5.80;4.10;;;;;;;20.90;52.48;96557.36;107622;1270;33528;-72
2022/06/01 10:46:41;;;;;;;6.20;4.30;;;;;;;20.83;53.99;96555.02;107504;1268;56591;-73
2022/06/01 10:49:26;;;;;;;6.10;4.00;;;;;;;20.79;54.04;96551.38;107590;1268;44056;-73
2022/06/01 10:52:04;;;;;;;5.70;4.00;;;;;;;20.48;54.46;96555.10;107571;1270;46760;-73
2022/06/01 10:54:44;;;;;;;6.00;4.10;;;;;;;20.35;54.66;96556.77;107589;1268;29654;-73
2022/06/01 10:57:20;;;;;;;7.40;4.50;;;;;;;20.27;55.06;96558.69;107575;1269;50587;-73
2022/06/01 10:59:52;;;;;;;5.40;3.90;;;;;;;20.34;55.85;96560.30;107603;1271;51535;-73
2022/06/01 11:02:46;;;;;;;5.30;3.90;;;;;;;20.57;55.91;96569.20;107634;1269;34968;-73
2022/06/01 11:05:25;;;;;;;6.30;4.50;;;;;;;20.88;55.89;96577.17;107555;1268;43972;-73
2022/06/01 11:08:10;;;;;;;5.30;4.00;;;;;;;21.33;54.95;96570.02;107630;1269;35977;-73
2022/06/01 11:10:55;;;;;;;5.80;4.20;;;;;;;21.57;54.27;96569.52;107530;1270;34463;-73
2022/06/01 11:13:42;;;;;;;5.60;3.70;;;;;;;21.71;53.76;96571.84;107591;1268;34552;-74
2022/06/01 11:16:25;;;;;;;6.50;4.40;;;;;;;21.61;52.69;96571.06;107566;1271;43039;-72
2022/06/01 11:19:10;;;;;;;6.10;3.60;;;;;;;21.40;52.63;96578.67;107558;1270;37607;-74
2022/06/01 11:21:46;;;;;;;7.10;3.90;;;;;;;21.22;52.70;96583.66;107618;1271;28377;-72
2022/06/01 11:24:32;;;;;;;5.80;4.20;;;;;;;21.28;53.40;96577.05;107516;1270;47566;-72
2022/06/01 11:27:20;;;;;;;6.40;3.90;;;;;;;21.49;53.31;96573.50;107569;1268;30562;-73
2022/06/01 11:30:03;;;;;;;2.50;1.80;;;;;;;21.93;53.57;96579.13;107611;1269;31751;-72
2022/06/01 11:32:40;;;;;;;2.70;1.30;;;;;;;22.24;49.43;96574.89;107569;1270;43470;-73
2022/06/01 11:35:19;;;;;;;1.90;1.00;;;;;;;22.01;47.08;96570.19;107600;1269;30920;-73
2022/06/01 11:37:58;;;;;;;2.00;1.20;;;;;;;21.95;46.25;96560.41;107557;1268;47135;-73
2022/06/01 11:40:44;;;;;;;2.10;1.30;;;;;;;22.33;46.27;96556.61;107635;1268;30904;-73
2022/06/01 11:43:24;;;;;;;3.60;1.20;;;;;;;22.58;44.27;96560.80;107526;1269;34555;-73
2022/06/01 11:46:00;;;;;;;1.30;1.10;;;;;;;22.43;44.94;96563.23;107636;1270;33969;-73
2022/06/01 11:48:35;;;;;;;2.00;1.30;;;;;;;22.35;43.90;96556.50;107546;1270;55836;-73
2022/06/01 11:51:15;;;;;;;3.60;1.90;;;;;;;22.30;44.41;96557.79;107535;1269;40566;-73
2022/06/01 11:53:59;;;;;;;3.10;1.50;;;;;;;22.19;44.29;96555.95;107545;1271;54566;-72
2022/06/01 11:56:43;;;;;;;2.20;1.30;;;;;;;22.40;44.62;96556.13;107579;1271;31154;-73
2022/06/01 11:59:24;;;;;;;1.80;1.30;;;;;;;22.69;44.81;96555.61;107597;1271;38478;-72
2022/06/01 12:02:18;;;;;;;2.20;1.60;;;;;;;23.05;45.27;96555.67;107657;1271;33541;-72
2022/06/01 12:05:02;;;;;;;2.80;1.50;;;;;;;23.26;44.29;96558.20;107488;1270;44203;-72
2022/06/01 12:07:36;;;;;;;2.10;1.30;;;;;;;23.35;44.46;96555.78;107634;1271;30409;-73
2022/06/01 12:10:21;;;;;;;3.20;1.40;;;;;;;23.44;43.59;96558.10;107605;1268;44423;-73
2022/06/01 12:13:06;;;;;;;1.70;1.30;;;;;;;23.45;43.22;96556.48;107657;1268;32731;-73
2022/06/01 12:16:04;;;;;;;2.20;1.40;;;;;;;23.21;43.61;96559.89;107613;1268;36344;-73
2022/06/01 12:18:35;;;;;;;2.40;1.50;;;;;;;22.81;42.43;96567.81;107525;1268;48785;-73
2022/06/01 12:21:34;;;;;;;1.90;1.30;;;;;;;22.76;42.70;96563.47;107593;1270;33411;-73
2022/06/01 12:30:17;;;;;;;1.50;1.00;;;;;;;23.72;43.17;96558.33;107302;1274;48081;-72
2022/06/01 12:33:14;;;;;;;1.90;1.10;;;;;;;24.02;42.48;96557.82;107531;1270;35806;-73
2022/06/01 12:35:53;;;;;;;2.90;1.30;;;;;;;24.18;41.91;96555.47;107523;1271;28343;-72
2022/06/01 12:38:33;;;;;;;1.50;1.30;;;;;;;24.09;41.13;96558.61;107611;1271;44246;-72
2022/06/01 12:41:16;;;;;;;1.60;1.20;;;;;;;24.01;40.78;96553.77;107626;1268;29415;-73
2022/06/01 12:43:58;;;;;;;1.40;1.00;;;;;;;24.06;41.56;96555.32;107517;1268;49078;-72